createdAt,value
2022-10-10T00:00:12.625Z,31.15
2022-10-10T00:02:39.208Z,34.88
2022-10-10T00:05:05.985Z,44.22
2022-10-10T00:07:32.505Z,41.40
2022-10-10T00:09:59.053Z,32.30
2022-10-10T00:14:42.980Z,38.35
2022-10-10T00:17:09.751Z,33.60
2022-10-10T00:19:36.276Z,32.55
2022-10-10T00:22:02.884Z,36.20
2022-10-10T00:24:29.463Z,35.28
2022-10-10T00:26:56.014Z,30.80
2022-10-10T00:29:22.568Z,34.38
2022-10-10T00:31:49.188Z,40.17
2022-10-10T00:34:15.667Z,33.70
2022-10-10T00:36:42.236Z,39.75
2022-10-10T00:39:08.773Z,32.17
2022-10-10T00:41:35.433Z,34.40
2022-10-10T00:44:08.328Z,38.55
2022-10-10T00:46:35.093Z,40.90
2022-10-10T00:49:03.053Z,39.92
2022-10-10T00:51:29.977Z,36.80
2022-10-10T00:54:02.129Z,37.80
2022-10-10T00:59:02.473Z,31.13
2022-10-10T01:01:29.104Z,31.25
2022-10-10T01:04:00.481Z,32.05
2022-10-10T01:06:27.196Z,37.10
2022-10-10T01:08:56.247Z,33.72
2022-10-10T01:11:52.186Z,32.63
2022-10-10T01:17:02.284Z,34.67
2022-10-10T01:20:06.621Z,38.17
2022-10-10T01:22:48.941Z,42.97
2022-10-10T01:25:37.423Z,38.53
2022-10-10T01:28:22.592Z,40.97
2022-10-10T01:30:49.452Z,36.17
2022-10-10T01:33:42.321Z,37.88
2022-10-10T01:36:13.425Z,36.83
2022-10-10T01:39:06.490Z,38.55
2022-10-10T01:41:40.495Z,39.88
2022-10-10T01:44:07.107Z,41.83
2022-10-10T01:46:33.608Z,35.85
2022-10-10T01:49:01.926Z,36.75
2022-10-10T01:51:49.185Z,37.28
2022-10-10T01:54:18.401Z,42.67
2022-10-10T01:57:11.240Z,41.65
2022-10-10T01:59:53.571Z,42.05
2022-10-10T02:02:34.992Z,41.80
2022-10-10T02:05:08.932Z,38.23
2022-10-10T02:07:58.572Z,42.05
2022-10-10T02:10:30.898Z,39.92
2022-10-10T02:13:01.632Z,39.78
2022-10-10T02:15:34.880Z,45.05
2022-10-10T02:20:24.892Z,37.72
2022-10-10T02:22:51.996Z,48.00
2022-10-10T02:25:26.944Z,33.15
2022-10-10T02:28:08.123Z,40.20
2022-10-10T02:30:38.779Z,39.20
2022-10-10T02:33:08.101Z,39.65
2022-10-10T02:35:41.084Z,44.42
2022-10-10T02:38:11.256Z,38.50
2022-10-10T02:40:39.509Z,41.13
2022-10-10T02:43:07.569Z,37.92
2022-10-10T02:45:35.254Z,39.35
2022-10-10T02:48:02.321Z,40.65
2022-10-10T02:50:30.251Z,38.60
2022-10-10T02:52:57.288Z,42.30
2022-10-10T02:55:23.868Z,37.38
2022-10-10T02:57:50.631Z,42.70
2022-10-10T03:00:17.919Z,33.83
2022-10-10T03:02:46.036Z,37.33
2022-10-10T03:05:13.981Z,39.13
2022-10-10T03:07:40.563Z,41.83
2022-10-10T03:10:07.544Z,37.80
2022-10-10T03:12:37.504Z,44.47
2022-10-10T03:15:10.531Z,36.20
2022-10-10T03:17:38.191Z,35.63
2022-10-10T03:20:05.215Z,41.78
2022-10-10T03:22:31.803Z,38.47
2022-10-10T03:24:58.364Z,34.33
2022-10-10T03:27:25.112Z,41.92
2022-10-10T03:29:52.024Z,40.05
2022-10-10T03:32:18.693Z,40.53
2022-10-10T03:34:45.212Z,36.58
2022-10-10T03:37:11.813Z,36.53
2022-10-10T03:39:38.422Z,42.83
2022-10-10T03:42:05.109Z,33.63
2022-10-10T03:44:31.620Z,38.03
2022-10-10T03:46:58.197Z,42.72
2022-10-10T03:49:24.812Z,33.67
2022-10-10T03:51:51.372Z,38.42
2022-10-10T03:54:17.948Z,37.05
2022-10-10T03:56:44.506Z,40.03
2022-10-10T03:59:11.242Z,39.45
2022-10-10T04:01:38.090Z,38.20
2022-10-10T04:04:05.124Z,36.10
2022-10-10T04:06:32.041Z,34.65
2022-10-10T04:08:58.656Z,38.83
2022-10-10T04:11:25.255Z,39.75
2022-10-10T04:13:51.796Z,33.40
2022-10-10T04:16:18.483Z,41.40
2022-10-10T04:18:44.964Z,42.50
2022-10-10T04:21:12.197Z,36.72
2022-10-10T04:23:40.494Z,38.72
2022-10-10T04:26:07.697Z,36.00
2022-10-10T04:28:34.302Z,37.53
2022-10-10T04:31:01.065Z,35.75
2022-10-10T04:33:27.605Z,39.95
2022-10-10T04:35:54.207Z,41.58
2022-10-10T04:38:21.366Z,35.70
2022-10-10T04:40:50.081Z,37.08
2022-10-10T04:43:17.814Z,39.03
2022-10-10T04:45:44.406Z,32.47
2022-10-10T04:48:12.269Z,35.10
2022-10-10T04:50:39.206Z,47.35
2022-10-10T04:53:06.226Z,39.05
2022-10-10T04:55:32.847Z,35.63
2022-10-10T04:57:59.377Z,31.05
2022-10-10T05:00:26.196Z,39.38
2022-10-10T05:02:53.190Z,37.45
2022-10-10T05:05:19.992Z,34.28
2022-10-10T05:07:48.186Z,37.20
2022-10-10T05:10:17.499Z,32.35
2022-10-10T05:12:44.025Z,41.15
2022-10-10T05:15:10.828Z,33.35
2022-10-10T05:17:37.450Z,32.58
2022-10-10T05:20:05.286Z,31.33
2022-10-10T05:22:31.834Z,34.13
2022-10-10T05:24:59.828Z,43.17
2022-10-10T05:27:27.111Z,36.53
2022-10-10T05:29:53.749Z,37.08
2022-10-10T05:32:20.334Z,30.45
2022-10-10T05:34:47.080Z,40.10
2022-10-10T05:37:14.213Z,35.42
2022-10-10T05:39:40.832Z,48.22
2022-10-10T05:42:07.315Z,33.13
2022-10-10T05:44:34.044Z,36.55
2022-10-10T05:47:00.578Z,37.22
2022-10-10T05:49:27.249Z,32.55
2022-10-10T05:51:53.785Z,36.30
2022-10-10T05:54:21.330Z,35.50
2022-10-10T05:56:48.071Z,32.25
2022-10-10T05:59:14.936Z,32.40
2022-10-10T06:01:41.563Z,35.25
2022-10-10T06:04:08.622Z,38.40
2022-10-10T06:06:35.273Z,31.52
2022-10-10T06:09:01.968Z,33.88
2022-10-10T06:11:29.213Z,29.08
2022-10-10T06:13:57.179Z,30.58
2022-10-10T06:16:25.796Z,33.30
2022-10-10T06:18:53.240Z,40.72
2022-10-10T06:21:20.495Z,30.77
2022-10-10T06:23:47.133Z,30.38
2022-10-10T06:26:13.619Z,36.78
2022-10-10T06:28:40.252Z,35.22
2022-10-10T06:31:08.858Z,28.77
2022-10-10T06:33:37.266Z,28.73
2022-10-10T06:36:06.049Z,28.85
2022-10-10T06:38:35.777Z,31.17
2022-10-10T06:41:03.399Z,30.30
2022-10-10T06:43:31.192Z,30.52
2022-10-10T06:45:57.773Z,35.95
2022-10-10T06:48:24.765Z,41.90
2022-10-10T06:51:09.274Z,32.00
2022-10-10T06:53:36.167Z,28.15
2022-10-10T06:56:03.585Z,33.60
2022-10-10T06:58:30.436Z,29.35
2022-10-10T07:00:59.702Z,27.75
2022-10-10T07:03:28.085Z,29.10
2022-10-10T07:05:56.969Z,25.65
2022-10-10T07:08:24.721Z,31.35
2022-10-10T07:10:51.753Z,29.42
2022-10-10T07:13:18.709Z,22.83
2022-10-10T07:15:45.453Z,31.42
2022-10-10T07:18:12.181Z,26.83
2022-10-10T07:20:40.017Z,22.45
2022-10-10T07:23:06.623Z,31.67
2022-10-10T07:25:33.157Z,34.95
2022-10-10T07:27:59.817Z,26.65
2022-10-10T07:30:26.687Z,23.00
2022-10-10T07:32:55.085Z,21.83
2022-10-10T07:35:22.110Z,23.33
2022-10-10T07:37:49.083Z,15.18
2022-10-10T07:40:15.616Z,21.83
2022-10-10T07:42:42.256Z,20.98
2022-10-10T07:45:12.062Z,26.08
2022-10-10T07:47:39.418Z,26.58
2022-10-10T07:50:07.963Z,19.77
2022-10-10T07:52:38.484Z,20.45
2022-10-10T07:55:05.809Z,18.77
2022-10-10T07:57:35.512Z,16.45
2022-10-10T08:00:07.013Z,12.55
2022-10-10T08:02:42.821Z,11.95
2022-10-10T08:05:09.858Z,17.23
2022-10-10T08:07:36.341Z,18.45
2022-10-10T08:10:03.519Z,17.35
2022-10-10T08:12:30.035Z,15.48
2022-10-10T08:14:56.806Z,16.42
2022-10-10T08:17:23.467Z,12.55
2022-10-10T08:19:50.392Z,18.67
2022-10-10T08:22:16.918Z,15.07
2022-10-10T08:24:43.798Z,16.23
2022-10-10T08:27:10.820Z,19.45
2022-10-10T08:29:37.372Z,15.13
2022-10-10T08:32:03.918Z,14.68
2022-10-10T08:34:30.523Z,12.35
2022-10-10T08:36:57.025Z,12.40
2022-10-10T08:39:23.968Z,16.63
2022-10-10T08:41:55.207Z,20.88
2022-10-10T08:44:51.677Z,14.90
2022-10-10T08:47:43.629Z,11.98
2022-10-10T08:50:25.695Z,15.75
2022-10-10T08:52:55.272Z,23.05
2022-10-10T08:55:30.859Z,17.95
2022-10-10T08:58:17.641Z,17.63
2022-10-10T09:01:04.489Z,16.35
2022-10-10T09:03:43.171Z,23.40
2022-10-10T09:06:40.472Z,17.83
2022-10-10T09:09:25.061Z,15.52
2022-10-10T09:12:09.601Z,12.52
2022-10-10T09:14:57.457Z,16.60
2022-10-10T09:17:29.541Z,15.45
2022-10-10T09:20:11.032Z,14.68
2022-10-10T09:22:49.246Z,14.57
2022-10-10T09:25:23.399Z,14.98
2022-10-10T09:28:18.157Z,13.93
2022-10-10T09:30:52.321Z,20.20
2022-10-10T09:33:37.431Z,13.50
2022-10-10T09:36:11.336Z,22.55
2022-10-10T09:38:43.972Z,16.55
2022-10-10T09:41:43.950Z,14.50
2022-10-10T09:44:13.487Z,14.35
2022-10-10T09:46:40.012Z,25.00
2022-10-10T09:49:07.152Z,24.95
2022-10-10T09:51:34.316Z,14.50
2022-10-10T09:54:01.163Z,14.73
2022-10-10T09:56:31.232Z,16.10
2022-10-10T09:58:58.248Z,14.93
2022-10-10T10:01:26.777Z,20.80
2022-10-10T10:04:27.778Z,13.15
2022-10-10T10:07:05.701Z,13.80
2022-10-10T10:09:32.585Z,16.73
2022-10-10T10:11:59.277Z,13.27
2022-10-10T10:14:30.384Z,13.93
2022-10-10T10:17:07.178Z,19.77
2022-10-10T10:19:37.827Z,19.10
2022-10-10T10:22:04.934Z,14.13
2022-10-10T10:24:36.456Z,10.25
2022-10-10T10:27:18.479Z,29.30
2022-10-10T10:29:51.848Z,13.27
2022-10-10T10:32:21.190Z,16.15
2022-10-10T10:34:56.574Z,15.27
2022-10-10T10:37:31.413Z,13.20
2022-10-10T10:40:04.433Z,19.58
2022-10-10T10:42:49.865Z,18.33
2022-10-10T10:45:26.736Z,16.92
2022-10-10T10:48:16.646Z,15.43
2022-10-10T10:50:52.556Z,14.68
2022-10-10T10:53:28.638Z,19.25
2022-10-10T10:56:12.698Z,17.45
2022-10-10T10:59:35.649Z,17.55
2022-10-10T11:02:26.112Z,17.42
2022-10-10T11:05:39.856Z,13.75
2022-10-10T11:08:13.857Z,17.48
2022-10-10T11:10:40.372Z,16.27
2022-10-10T11:13:36.337Z,12.35
2022-10-10T11:16:47.472Z,13.05
2022-10-10T11:19:28.873Z,37.42
2022-10-10T11:22:04.060Z,14.73
2022-10-10T11:24:42.008Z,11.45
2022-10-10T11:27:15.339Z,16.05
2022-10-10T11:29:52.138Z,17.48
2022-10-10T11:32:26.451Z,11.75
2022-10-10T11:35:07.045Z,11.18
2022-10-10T11:37:40.749Z,9.43
2022-10-10T11:40:28.763Z,12.00
2022-10-10T11:43:02.217Z,15.70
2022-10-10T11:45:35.452Z,15.77
2022-10-10T11:48:05.110Z,12.57
2022-10-10T11:50:37.429Z,8.90
2022-10-10T11:53:28.917Z,9.77
2022-10-10T11:56:03.217Z,12.82
2022-10-10T11:58:45.985Z,17.20
2022-10-10T12:01:22.432Z,13.35
2022-10-10T12:03:54.506Z,8.50
2022-10-10T12:09:08.529Z,5.63
2022-10-10T12:11:42.248Z,5.70
2022-10-10T12:14:13.823Z,7.90
2022-10-10T12:16:40.511Z,6.97
2022-10-10T12:19:16.421Z,7.72
2022-10-10T12:21:58.076Z,5.68
2022-10-10T12:25:06.353Z,12.32
2022-10-10T12:27:44.601Z,8.00
2022-10-10T12:30:25.538Z,7.03
2022-10-10T12:32:54.984Z,19.13
2022-10-10T12:35:30.957Z,8.90
2022-10-10T12:38:16.415Z,8.82
2022-10-10T12:41:12.251Z,7.13
2022-10-10T12:43:50.105Z,9.55
2022-10-10T12:46:43.047Z,6.20
2022-10-10T12:49:24.426Z,11.65
2022-10-10T12:52:03.819Z,6.90
2022-10-10T12:54:37.728Z,6.05
2022-10-10T12:57:25.633Z,9.98
2022-10-10T12:59:52.673Z,7.72
2022-10-10T13:02:26.380Z,9.20
2022-10-10T13:05:02.165Z,8.60
2022-10-10T13:07:29.551Z,9.63
2022-10-10T13:10:05.865Z,8.27
2022-10-10T13:12:32.656Z,7.95
2022-10-10T13:14:59.221Z,8.73
2022-10-10T13:17:37.239Z,12.70
2022-10-10T13:20:05.667Z,6.95
2022-10-10T13:22:35.963Z,9.40
2022-10-10T13:25:05.441Z,24.23
2022-10-10T13:27:35.102Z,6.63
2022-10-10T13:30:02.054Z,9.38
2022-10-10T13:32:32.490Z,9.98
2022-10-10T13:35:02.134Z,7.25
2022-10-10T13:37:29.312Z,7.97
2022-10-10T13:39:56.625Z,10.55
2022-10-10T13:42:28.703Z,9.10
2022-10-10T13:44:57.062Z,12.80
2022-10-10T13:47:46.571Z,7.38
2022-10-10T13:50:24.273Z,8.63
2022-10-10T13:53:11.104Z,12.93
2022-10-10T13:55:38.252Z,12.68
2022-10-10T13:58:08.990Z,11.45
2022-10-10T14:00:37.567Z,8.82
2022-10-10T14:03:18.478Z,6.80
2022-10-10T14:05:46.620Z,10.25
2022-10-10T14:08:20.250Z,10.15
2022-10-10T14:11:09.412Z,8.68
2022-10-10T14:13:38.933Z,8.80
2022-10-10T14:16:17.736Z,18.05
2022-10-10T14:18:45.713Z,12.75
2022-10-10T14:21:13.057Z,12.73
2022-10-10T14:23:40.256Z,9.45
2022-10-10T14:26:18.040Z,13.98
2022-10-10T14:28:45.206Z,9.75
2022-10-10T14:31:12.688Z,15.43
2022-10-10T14:33:39.979Z,9.02
2022-10-10T14:36:06.759Z,16.48
2022-10-10T14:38:33.396Z,9.38
2022-10-10T14:41:01.032Z,8.10
2022-10-10T14:43:28.031Z,8.50
2022-10-10T14:45:54.976Z,9.48
2022-10-10T14:48:21.812Z,14.88
2022-10-10T14:50:49.222Z,12.07
2022-10-10T14:53:16.316Z,15.40
2022-10-10T14:55:43.775Z,14.93
2022-10-10T14:58:28.623Z,12.35
2022-10-10T15:00:55.421Z,12.48
2022-10-10T15:03:22.049Z,29.35
2022-10-10T15:05:49.512Z,11.23
2022-10-10T15:08:17.786Z,17.85
2022-10-10T15:10:46.089Z,14.05
2022-10-10T15:13:13.391Z,25.30
2022-10-10T15:15:40.168Z,16.92
2022-10-10T15:18:20.063Z,28.25
2022-10-10T15:20:53.380Z,13.25
2022-10-10T15:23:20.012Z,15.65
2022-10-10T15:25:46.588Z,186.32
2022-10-10T15:28:13.217Z,467.13
2022-10-10T15:30:43.099Z,638.80
2022-10-10T15:33:09.749Z,1213.97
2022-10-10T15:36:03.793Z,602.15
2022-10-10T15:38:22.985Z,475.77
2022-10-10T15:41:00.237Z,542.30
2022-10-10T15:43:28.228Z,565.78
2022-10-10T15:45:56.535Z,203.73
2022-10-10T15:48:23.171Z,321.60
2022-10-10T15:50:51.241Z,232.43
2022-10-10T15:53:18.858Z,681.08
2022-10-10T15:55:47.061Z,215.52
2022-10-10T15:58:14.677Z,298.48
2022-10-10T16:00:43.235Z,211.90
2022-10-10T16:03:10.091Z,29.50
2022-10-10T16:05:38.445Z,104.18
2022-10-10T16:12:30.004Z,1124.45
2022-10-10T16:14:56.732Z,1348.15
2022-10-10T16:17:23.876Z,1909.55
2022-10-10T16:19:50.952Z,1960.93
2022-10-10T16:22:17.431Z,1954.32
2022-10-10T16:24:53.975Z,763.42
2022-10-10T16:27:32.113Z,1585.03
2022-10-10T16:29:58.649Z,787.35
2022-10-10T16:32:25.265Z,1060.72
2022-10-10T16:34:51.822Z,1460.35
2022-10-10T16:37:18.343Z,513.85
2022-10-10T16:39:44.819Z,305.08
2022-10-10T16:42:11.493Z,600.30
2022-10-10T16:44:38.067Z,380.55
2022-10-10T16:47:04.679Z,369.70
2022-10-10T16:49:32.334Z,1638.35
2022-10-10T16:51:59.013Z,1999.90
2022-10-10T16:54:25.553Z,1999.90
2022-10-10T16:56:52.150Z,1882.60
2022-10-10T16:59:18.645Z,1150.38
2022-10-10T17:01:45.391Z,1058.57
2022-10-10T17:04:15.036Z,1756.05
2022-10-10T17:06:41.585Z,854.03
2022-10-10T17:09:09.894Z,603.67
2022-10-10T17:11:36.658Z,611.65
2022-10-10T17:14:03.795Z,417.05
2022-10-10T17:19:17.133Z,38.55
2022-10-10T17:21:43.628Z,66.47
2022-10-10T17:24:10.201Z,32.33
2022-10-10T17:26:37.018Z,40.08
2022-10-10T17:29:03.602Z,41.42
2022-10-10T17:31:30.158Z,66.22
2022-10-10T17:33:57.584Z,49.83
2022-10-10T17:36:26.900Z,44.67
2022-10-10T17:39:00.313Z,46.75
2022-10-10T17:41:28.320Z,56.78
2022-10-10T17:43:55.631Z,79.85
2022-10-10T17:46:41.302Z,88.90
2022-10-10T17:49:10.224Z,70.15
2022-10-10T17:51:38.213Z,40.08
2022-10-10T17:54:06.350Z,31.80
2022-10-10T17:56:33.121Z,23.85
2022-10-10T17:59:01.705Z,39.53
2022-10-10T18:01:30.624Z,35.25
2022-10-10T18:03:57.875Z,52.05
2022-10-10T18:06:24.489Z,33.67
2022-10-10T18:08:52.955Z,27.50
2022-10-10T18:11:25.493Z,71.65
2022-10-10T18:13:52.440Z,48.30
2022-10-10T18:16:22.387Z,29.88
2022-10-10T18:18:52.096Z,28.73
2022-10-10T18:21:23.202Z,21.13
2022-10-10T18:23:50.685Z,22.00
2022-10-10T18:26:20.579Z,24.15
2022-10-10T18:28:48.515Z,22.13
2022-10-10T18:31:18.507Z,23.50
2022-10-10T18:33:45.963Z,30.08
2022-10-10T18:36:18.832Z,56.20
2022-10-10T18:38:46.087Z,44.13
2022-10-10T18:41:18.953Z,51.05
2022-10-10T18:43:46.237Z,31.75
2022-10-10T18:46:20.743Z,46.45
2022-10-10T18:48:53.853Z,37.03
2022-10-10T18:51:26.436Z,37.88
2022-10-10T18:56:24.677Z,46.55
2022-10-10T18:58:56.115Z,102.20
2022-10-10T19:01:25.431Z,54.57
2022-10-10T19:03:54.813Z,54.97
2022-10-10T19:06:23.351Z,50.90
2022-10-10T19:09:00.183Z,38.22
2022-10-10T19:11:29.491Z,43.10
2022-10-10T19:13:58.117Z,31.10
2022-10-10T19:16:25.531Z,27.85
2022-10-10T19:18:56.291Z,23.05
2022-10-10T19:21:25.549Z,23.63
2022-10-10T19:23:53.434Z,23.42
2022-10-10T19:26:20.076Z,27.15
2022-10-10T19:28:46.934Z,31.85
2022-10-10T19:31:16.037Z,71.85
2022-10-10T19:33:43.484Z,85.05
2022-10-10T19:36:12.426Z,106.18
2022-10-10T19:38:41.603Z,94.00
2022-10-10T19:43:22.460Z,98.90
2022-10-10T19:45:51.495Z,77.60
2022-10-10T19:48:20.358Z,87.55
2022-10-10T19:50:47.894Z,45.97
2022-10-10T19:53:17.697Z,40.17
2022-10-10T19:55:57.152Z,30.73
2022-10-10T19:58:23.897Z,26.35
2022-10-10T20:00:50.730Z,25.92
2022-10-10T20:03:20.369Z,27.40
2022-10-10T20:05:47.236Z,32.20
2022-10-10T20:08:14.669Z,48.35
2022-10-10T20:10:42.783Z,49.35
2022-10-10T20:13:14.808Z,66.78
2022-10-10T20:15:42.898Z,47.25
2022-10-10T20:18:09.950Z,36.00
2022-10-10T20:20:41.055Z,50.50
2022-10-10T20:23:08.369Z,38.47
2022-10-10T20:25:39.093Z,36.72
2022-10-10T20:28:06.095Z,28.20
2022-10-10T20:30:33.870Z,36.97
2022-10-10T20:33:00.642Z,34.28
2022-10-10T20:35:27.164Z,36.80
2022-10-10T20:37:53.937Z,31.33
2022-10-10T20:40:20.469Z,42.20
2022-10-10T20:42:47.217Z,35.30
2022-10-10T20:45:14.497Z,32.05
2022-10-10T20:47:41.025Z,25.63
2022-10-10T20:50:07.946Z,27.63
2022-10-10T20:52:34.568Z,29.05
2022-10-10T20:55:01.061Z,62.30
2022-10-10T20:57:30.135Z,45.05
2022-10-10T20:59:56.831Z,36.88
2022-10-10T21:02:23.492Z,35.90
2022-10-10T21:04:50.051Z,31.90
2022-10-10T21:07:16.587Z,34.00
2022-10-10T21:09:43.078Z,30.63
2022-10-10T21:12:09.720Z,34.80
2022-10-10T21:14:36.233Z,36.08
2022-10-10T21:17:02.784Z,45.35
2022-10-10T21:19:29.609Z,41.05
2022-10-10T21:21:56.168Z,44.25
2022-10-10T21:24:22.689Z,45.92
2022-10-10T21:26:50.551Z,59.03
2022-10-10T21:29:17.121Z,64.88
2022-10-10T21:31:43.768Z,59.63
2022-10-10T21:34:13.760Z,61.95
2022-10-10T21:36:40.638Z,68.43
2022-10-10T21:39:07.447Z,68.43
2022-10-10T21:41:34.628Z,71.47
2022-10-10T21:44:01.188Z,65.68
2022-10-10T21:46:35.876Z,64.57
2022-10-10T21:49:09.094Z,54.92
2022-10-10T21:51:38.422Z,47.35
2022-10-10T21:54:06.055Z,42.20
2022-10-10T21:56:33.687Z,41.95
2022-10-10T21:59:01.432Z,36.60
2022-10-10T22:01:32.551Z,44.55
2022-10-10T22:03:59.998Z,36.60
2022-10-10T22:06:26.609Z,31.40
2022-10-10T22:08:57.161Z,33.03
2022-10-10T22:11:25.716Z,39.90
2022-10-10T22:13:52.587Z,59.25
2022-10-10T22:16:19.857Z,51.45
2022-10-10T22:18:46.396Z,93.07
2022-10-10T22:21:15.740Z,88.35
2022-10-10T22:23:43.032Z,106.32
2022-10-10T22:26:11.556Z,97.78
2022-10-10T22:28:38.887Z,87.78
2022-10-10T22:31:10.099Z,109.90
2022-10-10T22:33:36.841Z,124.40
2022-10-10T22:36:04.742Z,108.78
2022-10-10T22:38:31.832Z,107.63
2022-10-10T22:40:59.076Z,101.55
2022-10-10T22:43:27.093Z,115.07
2022-10-10T22:45:54.141Z,113.55
2022-10-10T22:48:21.387Z,104.47
2022-10-10T22:50:48.042Z,98.72
2022-10-10T22:53:14.737Z,92.10
2022-10-10T22:55:41.364Z,89.75
2022-10-10T22:58:07.916Z,88.53
2022-10-10T23:00:34.601Z,85.60
2022-10-10T23:03:01.316Z,89.95
2022-10-10T23:05:27.880Z,97.85
2022-10-10T23:07:54.466Z,99.45
2022-10-10T23:10:20.992Z,94.25
2022-10-10T23:12:47.599Z,99.50
2022-10-10T23:15:14.185Z,95.72
2022-10-10T23:17:40.844Z,102.15
2022-10-10T23:20:08.038Z,89.90
2022-10-10T23:22:34.573Z,89.70
2022-10-10T23:25:01.097Z,88.90
2022-10-10T23:27:27.834Z,80.57
2022-10-10T23:29:54.388Z,92.32
2022-10-10T23:32:22.928Z,83.45
2022-10-10T23:34:49.414Z,70.57
2022-10-10T23:37:15.969Z,82.75
2022-10-10T23:39:42.813Z,90.82
2022-10-10T23:42:09.381Z,83.60
2022-10-10T23:44:35.883Z,87.90
2022-10-10T23:47:02.670Z,84.75
2022-10-10T23:49:29.744Z,79.45
2022-10-10T23:51:56.312Z,91.85
2022-10-10T23:54:22.966Z,87.82
2022-10-10T23:56:49.535Z,82.13
2022-10-10T23:59:16.306Z,74.65
